< < Back
Terminal Aerodrome Forecast


Current Version              Previous Versions:   1  2  3  4  5  6  7  8  9  

Terminal Aerodrome Forecast

572
FTUS42 KGSP 292320
TAFCLT
TAF
KCLT 292320Z 3000/3024 28006KT P6SM SCT060 BKN250
     FM300400 28004KT P6SM SCT060
     FM301800 24006KT P6SM BKN070 PROB30 3020/3024 4SM -TSRA
      OVC040CB=

Latest METAR

034
SAUS70 KWBC 292300
MTRCLT
METAR KCLT 292252Z VRB03KT 10SM FEW060 FEW150 BKN250 34/17 A2992 RMK AO2
SLP122 T03390172


USA.gov is the U.S. government's official web portal to all federal, state and local government web resources and services.